Vasteras, Sweden

9:12 PM CEST on October 01, 2016 (GMT +0200)
Ankargatan | | Change Station

Elev 52 ft 59.60 °N, 16.59 °E | Updated 44 seconds ago

Clear
Clear
45.9 °F
Feels Like 46 °F
N
0.0
Wind Variable Wind from North
Gusts 1.2 mph

Today
High -- | Low -- °F
--% Chance of Precip.
Yesterday
High -- | Low -- °F
Precip. -- in
Pressure 29.83 in
Visibility 6.2 miles
Clouds
Windchill 46 °F
Dew Point 39 °F
Humidity 78%
Rainfall in
Snow Depth Not available.
6:59 AM 6:25 PM
New Moon, 1% visible
METAR ESOW 011850Z AUTO 00000KT 9999 NCD 04/02 Q1010
Pressure 29.83 in
Visibility 6.2 miles
Clouds
Windchill 46 °F
Dew Point 39 °F
Humidity 78%
Rainfall in
Snow Depth Not available.
6:59 AM 6:25 PM
New Moon, 1% visible
METAR ESOW 011850Z AUTO 00000KT 9999 NCD 04/02 Q1010

10-Day Weather Forecast

×

Almanac

Astronomy

Oct. 01, 2016 Rise Set
Actual Time
Civil Twilight
Nautical Twilight
Astronomical Twilight
Moon
Length of Visible Light
Length of Day
Tomorrow will be .
, % of the Moon is Illuminated

Today's Extremes

Country Highs Country Lows

Community

WunderPhotos

Upload Photos

1,942,999 photos uploaded!

WunderBlog® & News

Nearby

Air Quality

  Air Quality AQ Index Pollutant
Not available.

Snow Depth

Station Depth Elevation

Earthquake Activity

City Distance Mag. Time & Date
Minimum magnitude displayed is 2.5.

Coastal Water Temperatures

Place Temperature

Stations

Nearby Weather Stations

Station Location Temp. Windchill Dew Point Humidity Wind Precip. Elev Updated Type